createdAt,value
2023-06-18T00:04:30.368Z,21.10
2023-06-18T00:09:51.661Z,22.25
2023-06-18T00:15:12.418Z,23.92
2023-06-18T00:20:34.966Z,27.23
2023-06-18T00:25:56.012Z,22.58
2023-06-18T00:31:16.900Z,31.05
2023-06-18T00:36:38.973Z,20.42
2023-06-18T00:42:00.028Z,24.25
2023-06-18T00:47:20.845Z,82.20
2023-06-18T00:52:45.102Z,108.93
2023-06-18T00:58:06.000Z,75.65
2023-06-18T01:03:26.915Z,22.60
2023-06-18T01:08:50.339Z,22.05
2023-06-18T01:14:11.768Z,24.58
2023-06-18T01:19:48.767Z,22.90
2023-06-18T01:25:11.568Z,23.80
2023-06-18T01:30:33.221Z,35.13
2023-06-18T01:35:54.810Z,19.25
2023-06-18T01:41:25.502Z,18.67
2023-06-18T01:46:48.561Z,27.67
2023-06-18T01:52:10.970Z,20.08
2023-06-18T01:57:34.322Z,17.85
2023-06-18T02:02:55.667Z,18.20
2023-06-18T02:08:16.348Z,16.02
2023-06-18T02:13:38.542Z,58.83
2023-06-18T02:18:59.011Z,33.72
2023-06-18T02:24:19.763Z,54.05
2023-06-18T02:29:43.045Z,49.83
2023-06-18T02:35:03.880Z,52.58
2023-06-18T02:40:24.946Z,54.17
2023-06-18T02:45:47.556Z,21.65
2023-06-18T02:51:08.525Z,51.40
2023-06-18T02:56:29.251Z,26.55
2023-06-18T03:01:51.364Z,12.35
2023-06-18T03:07:11.970Z,110.97
2023-06-18T03:12:32.763Z,14.35
2023-06-18T03:17:55.359Z,17.17
2023-06-18T03:23:16.525Z,19.95
2023-06-18T03:28:37.312Z,19.02
2023-06-18T03:33:59.683Z,11.55
2023-06-18T03:39:21.334Z,11.23
2023-06-18T03:44:42.129Z,13.23
2023-06-18T03:50:04.659Z,9.45
2023-06-18T03:55:25.307Z,36.75
2023-06-18T04:00:46.118Z,45.33
2023-06-18T04:06:08.920Z,38.42
2023-06-18T04:11:30.116Z,14.25
2023-06-18T04:16:50.797Z,48.63
2023-06-18T04:22:12.976Z,33.92
2023-06-18T04:27:33.920Z,64.80
2023-06-18T04:32:54.824Z,40.28
2023-06-18T04:38:17.049Z,24.85
2023-06-18T04:43:38.058Z,37.60
2023-06-18T04:48:58.858Z,21.80
2023-06-18T04:54:20.911Z,36.88
2023-06-18T04:59:41.824Z,25.40
2023-06-18T05:05:02.756Z,20.17
2023-06-18T05:10:25.773Z,12.45
2023-06-18T05:15:47.338Z,29.75
2023-06-18T05:21:07.921Z,19.08
2023-06-18T05:26:30.282Z,10.30
2023-06-18T05:31:51.284Z,16.38
2023-06-18T05:37:12.120Z,16.55
2023-06-18T05:42:34.461Z,10.38
2023-06-18T05:47:55.617Z,8.32
2023-06-18T05:53:16.857Z,8.63
2023-06-18T05:58:39.094Z,12.65
2023-06-18T06:03:59.780Z,11.80
2023-06-18T06:09:20.444Z,9.05
2023-06-18T06:14:42.724Z,13.40
2023-06-18T06:20:04.871Z,12.43
2023-06-18T06:25:25.670Z,14.38
2023-06-18T06:30:48.115Z,15.15
2023-06-18T06:36:08.927Z,15.23
2023-06-18T06:41:29.903Z,15.65
2023-06-18T06:46:51.924Z,18.55
2023-06-18T06:52:13.061Z,15.10
2023-06-18T06:57:33.881Z,15.27
2023-06-18T07:02:56.096Z,16.45
2023-06-18T07:08:17.087Z,16.13
2023-06-18T07:13:37.814Z,18.02
2023-06-18T07:19:00.086Z,20.83
2023-06-18T07:24:21.436Z,16.65
2023-06-18T07:29:42.396Z,17.30
2023-06-18T07:35:05.482Z,14.82
2023-06-18T07:40:26.116Z,16.35
2023-06-18T07:45:46.827Z,14.57
2023-06-18T07:51:08.905Z,14.90
2023-06-18T07:56:31.639Z,15.80
2023-06-18T08:01:52.340Z,12.63
2023-06-18T08:07:16.646Z,19.00
2023-06-18T08:12:37.285Z,16.10
2023-06-18T08:17:58.121Z,11.70
2023-06-18T08:23:20.226Z,13.07
2023-06-18T08:28:41.147Z,10.35
2023-06-18T08:34:01.924Z,11.32
2023-06-18T08:39:24.077Z,11.63
2023-06-18T08:44:48.164Z,10.50
2023-06-18T08:50:10.625Z,10.63
2023-06-18T08:55:34.170Z,9.65
2023-06-18T09:00:55.374Z,8.98
2023-06-18T09:06:16.172Z,11.15
2023-06-18T09:11:38.108Z,8.80
2023-06-18T09:16:59.344Z,6.57
2023-06-18T09:22:21.323Z,7.43
2023-06-18T09:27:43.502Z,6.20
2023-06-18T09:33:04.627Z,7.70
2023-06-18T09:38:33.711Z,6.20
2023-06-18T09:43:55.908Z,5.22
2023-06-18T09:49:18.550Z,5.57
2023-06-18T09:54:41.480Z,5.55
2023-06-18T10:00:13.098Z,5.05
2023-06-18T10:05:34.187Z,4.43
2023-06-18T10:10:55.148Z,6.25
2023-06-18T10:16:18.412Z,3.95
2023-06-18T10:21:47.458Z,3.63
2023-06-18T10:27:08.896Z,4.95
2023-06-18T10:32:31.667Z,4.50
2023-06-18T10:37:53.499Z,4.10
2023-06-18T10:43:14.550Z,4.78
2023-06-18T10:48:36.618Z,4.60
2023-06-18T10:54:20.473Z,5.55
2023-06-18T10:59:44.356Z,3.22
2023-06-18T11:05:07.068Z,2.75
2023-06-18T11:10:34.185Z,3.53
2023-06-18T11:16:00.645Z,5.03
2023-06-18T11:21:23.449Z,3.08
2023-06-18T11:26:44.290Z,4.00
2023-06-18T11:32:13.726Z,4.25
2023-06-18T11:37:36.482Z,4.45
2023-06-18T11:42:57.397Z,3.58
2023-06-18T11:48:20.472Z,3.28
2023-06-18T11:53:43.160Z,3.45
2023-06-18T11:59:04.858Z,3.85
2023-06-18T12:04:31.147Z,6.05
2023-06-18T12:09:55.458Z,3.50
2023-06-18T12:15:23.175Z,2.88
2023-06-18T12:20:44.727Z,4.50
2023-06-18T12:26:07.301Z,5.38
2023-06-18T12:31:28.240Z,5.90
2023-06-18T12:36:49.107Z,4.68
2023-06-18T12:42:11.646Z,5.13
2023-06-18T12:47:32.215Z,3.88
2023-06-18T12:52:53.847Z,4.75
2023-06-18T12:58:20.108Z,3.17
2023-06-18T13:03:41.172Z,2.97
2023-06-18T13:09:01.964Z,3.63
2023-06-18T13:14:31.084Z,4.70
2023-06-18T13:19:59.502Z,4.38
2023-06-18T13:25:20.940Z,3.45
2023-06-18T13:30:43.183Z,3.83
2023-06-18T13:36:04.840Z,3.08
2023-06-18T13:41:25.930Z,3.55
2023-06-18T13:46:48.370Z,3.55
2023-06-18T13:52:09.338Z,3.65
2023-06-18T13:57:30.107Z,5.00
2023-06-18T14:02:57.570Z,5.28
2023-06-18T14:08:19.122Z,3.78
2023-06-18T14:13:39.883Z,3.55
2023-06-18T14:19:02.317Z,3.40
2023-06-18T14:24:23.326Z,3.40
2023-06-18T14:29:44.150Z,3.65
2023-06-18T14:35:07.041Z,3.17
2023-06-18T14:40:27.911Z,4.25
2023-06-18T14:45:48.963Z,3.00
2023-06-18T14:51:10.860Z,3.47
2023-06-18T14:56:32.007Z,5.28
2023-06-18T15:01:52.892Z,4.18
2023-06-18T15:07:15.124Z,4.68
2023-06-18T15:12:36.265Z,3.80
2023-06-18T15:17:57.391Z,3.15
2023-06-18T15:23:19.975Z,3.97
2023-06-18T15:28:41.014Z,4.88
2023-06-18T15:34:01.969Z,4.30
2023-06-18T15:39:24.212Z,4.03
2023-06-18T15:44:45.360Z,4.70
2023-06-18T15:50:07.825Z,4.88
2023-06-18T15:55:30.044Z,7.45
2023-06-18T16:00:51.059Z,4.13
2023-06-18T16:06:12.010Z,3.45
2023-06-18T16:11:34.555Z,3.83
2023-06-18T16:16:55.725Z,5.68
2023-06-18T16:22:16.455Z,3.47
2023-06-18T16:27:38.804Z,4.07
2023-06-18T16:33:00.056Z,3.47
2023-06-18T16:38:21.188Z,5.57
2023-06-18T16:43:43.485Z,4.70
2023-06-18T16:49:04.665Z,3.50
2023-06-18T16:54:25.591Z,3.90
2023-06-18T16:59:47.812Z,3.78
2023-06-18T17:05:09.107Z,5.00
2023-06-18T17:10:29.884Z,5.50
2023-06-18T17:15:53.478Z,5.28
2023-06-18T17:21:16.408Z,5.72
2023-06-18T17:26:37.930Z,4.32
2023-06-18T17:32:00.161Z,4.13
2023-06-18T17:37:21.042Z,5.03
2023-06-18T17:42:42.155Z,4.13
2023-06-18T17:48:05.038Z,3.63
2023-06-18T17:53:25.925Z,3.92
2023-06-18T17:58:46.887Z,3.53
2023-06-18T18:04:09.164Z,7.28
2023-06-18T18:09:30.107Z,4.00
2023-06-18T18:14:50.935Z,4.07
2023-06-18T18:20:13.466Z,4.25
2023-06-18T18:25:34.500Z,4.88
2023-06-18T18:30:55.174Z,3.75
2023-06-18T18:36:17.512Z,3.97
2023-06-18T18:41:38.135Z,4.43
2023-06-18T18:46:59.218Z,5.57
2023-06-18T18:52:21.491Z,7.55
2023-06-18T18:57:42.498Z,5.38
2023-06-18T19:03:03.454Z,5.53
2023-06-18T19:08:25.639Z,5.78
2023-06-18T19:13:46.939Z,6.75
2023-06-18T19:19:08.569Z,6.28
2023-06-18T19:24:32.061Z,5.70
2023-06-18T19:29:53.119Z,6.05
2023-06-18T19:35:13.928Z,3.75
2023-06-18T19:40:36.232Z,4.15
2023-06-18T19:45:57.277Z,3.97
2023-06-18T19:51:18.418Z,5.30
2023-06-18T19:56:49.907Z,4.20
2023-06-18T20:02:10.633Z,4.60
2023-06-18T20:07:34.299Z,6.75
2023-06-18T20:12:59.218Z,5.63
2023-06-18T20:18:20.624Z,6.32
2023-06-18T20:23:41.756Z,6.57
2023-06-18T20:29:04.053Z,5.95
2023-06-18T20:34:24.962Z,6.22
2023-06-18T20:39:45.905Z,4.63
2023-06-18T20:45:09.524Z,5.18
2023-06-18T20:50:30.431Z,5.97
2023-06-18T20:55:51.370Z,5.45
2023-06-18T21:01:13.428Z,6.22
2023-06-18T21:06:34.538Z,5.47
2023-06-18T21:11:55.213Z,7.03
2023-06-18T21:17:17.558Z,4.60
2023-06-18T21:22:38.710Z,4.70
2023-06-18T21:27:59.354Z,6.35
2023-06-18T21:33:21.806Z,7.25
2023-06-18T21:38:42.698Z,6.85
2023-06-18T21:44:03.924Z,4.40
2023-06-18T21:49:26.041Z,3.90
2023-06-18T21:54:46.678Z,4.10
2023-06-18T22:00:10.409Z,8.13
2023-06-18T22:05:32.600Z,5.30
2023-06-18T22:10:53.203Z,4.43
2023-06-18T22:16:14.212Z,4.28
2023-06-18T22:21:36.438Z,4.22
2023-06-18T22:26:57.745Z,6.50
2023-06-18T22:32:19.002Z,6.72
2023-06-18T22:37:41.302Z,4.95
2023-06-18T22:43:02.313Z,5.25
2023-06-18T22:48:23.387Z,5.65
2023-06-18T22:53:45.600Z,4.82
2023-06-18T22:59:06.685Z,7.13
2023-06-18T23:04:27.403Z,6.90
2023-06-18T23:09:49.695Z,6.38
2023-06-18T23:15:11.938Z,7.03
2023-06-18T23:20:33.272Z,5.25
2023-06-18T23:25:55.480Z,5.45
2023-06-18T23:31:16.891Z,6.13
2023-06-18T23:36:37.907Z,8.10
2023-06-18T23:42:00.327Z,6.82
2023-06-18T23:47:21.002Z,5.95
2023-06-18T23:52:41.888Z,6.68
2023-06-18T23:58:04.021Z,6.30
